sensor_id;sensor_type;location;lat;lon;timestamp;P1;durP1;ratioP1;P2;durP2;ratioP2
46377;SDS011;32083;47.360;9.650;2022-10-31T01:30:31;28.77;;;25.50;;
46377;SDS011;32083;47.360;9.650;2022-10-31T01:33:09;36.00;;;28.88;;
46377;SDS011;32083;47.360;9.650;2022-10-31T03:17:59;22.73;;;20.33;;
46377;SDS011;32083;47.360;9.650;2022-10-31T04:26:50;64.53;;;26.67;;
46377;SDS011;32083;47.360;9.650;2022-10-31T04:29:34;203.88;;;49.55;;
46377;SDS011;32083;47.360;9.650;2022-10-31T04:32:09;80.38;;;35.58;;
46377;SDS011;32083;47.360;9.650;2022-10-31T04:34:39;68.35;;;34.08;;
46377;SDS011;32083;47.360;9.650;2022-10-31T04:37:08;62.03;;;33.58;;
46377;SDS011;32083;47.360;9.650;2022-10-31T04:40:06;84.83;;;31.33;;
46377;SDS011;32083;47.360;9.650;2022-10-31T04:42:44;44.85;;;28.02;;
46377;SDS011;32083;47.360;9.650;2022-10-31T04:45:24;53.78;;;32.15;;
46377;SDS011;32083;47.360;9.650;2022-10-31T04:48:08;40.58;;;25.38;;
46377;SDS011;32083;47.360;9.650;2022-10-31T04:50:46;42.38;;;24.80;;
46377;SDS011;32083;47.360;9.650;2022-10-31T04:53:29;39.78;;;25.83;;
46377;SDS011;32083;47.360;9.650;2022-10-31T04:56:07;94.68;;;39.55;;
46377;SDS011;32083;47.360;9.650;2022-10-31T04:58:35;32.00;;;23.80;;
46377;SDS011;32083;47.360;9.650;2022-10-31T05:01:18;87.25;;;34.92;;
46377;SDS011;32083;47.360;9.650;2022-10-31T05:03:52;132.77;;;39.85;;
46377;SDS011;32083;47.360;9.650;2022-10-31T05:06:22;77.47;;;30.55;;
46377;SDS011;32083;47.360;9.650;2022-10-31T05:09:50;64.63;;;30.35;;
46377;SDS011;32083;47.360;9.650;2022-10-31T05:12:25;129.18;;;40.40;;
46377;SDS011;32083;47.360;9.650;2022-10-31T05:15:07;72.25;;;29.85;;
46377;SDS011;32083;47.360;9.650;2022-10-31T05:17:37;87.00;;;34.97;;
46377;SDS011;32083;47.360;9.650;2022-10-31T05:20:38;107.18;;;34.20;;
46377;SDS011;32083;47.360;9.650;2022-10-31T05:27:05;81.50;;;29.00;;
46377;SDS011;32083;47.360;9.650;2022-10-31T05:29:44;132.63;;;37.50;;
46377;SDS011;32083;47.360;9.650;2022-10-31T05:32:15;46.00;;;20.05;;
46377;SDS011;32083;47.360;9.650;2022-10-31T05:34:53;117.50;;;29.42;;
46377;SDS011;32083;47.360;9.650;2022-10-31T05:37:21;63.65;;;26.27;;
46377;SDS011;32083;47.360;9.650;2022-10-31T05:40:14;111.30;;;36.00;;
46377;SDS011;32083;47.360;9.650;2022-10-31T05:42:41;70.63;;;29.88;;
46377;SDS011;32083;47.360;9.650;2022-10-31T05:45:09;43.90;;;24.60;;
46377;SDS011;32083;47.360;9.650;2022-10-31T05:47:37;67.85;;;26.63;;
46377;SDS011;32083;47.360;9.650;2022-10-31T05:50:04;98.05;;;34.30;;
46377;SDS011;32083;47.360;9.650;2022-10-31T05:52:30;56.53;;;28.63;;
46377;SDS011;32083;47.360;9.650;2022-10-31T05:54:57;25.85;;;19.17;;
46377;SDS011;32083;47.360;9.650;2022-10-31T05:57:23;58.47;;;30.25;;
46377;SDS011;32083;47.360;9.650;2022-10-31T05:59:49;48.03;;;28.02;;
46377;SDS011;32083;47.360;9.650;2022-10-31T06:02:18;31.38;;;18.20;;
46377;SDS011;32083;47.360;9.650;2022-10-31T06:04:45;30.00;;;18.52;;
46377;SDS011;32083;47.360;9.650;2022-10-31T06:07:11;42.78;;;22.67;;
46377;SDS011;32083;47.360;9.650;2022-10-31T06:09:37;110.28;;;29.50;;
46377;SDS011;32083;47.360;9.650;2022-10-31T06:12:03;73.47;;;23.85;;
46377;SDS011;32083;47.360;9.650;2022-10-31T06:14:29;39.45;;;16.70;;
46377;SDS011;32083;47.360;9.650;2022-10-31T06:16:55;97.43;;;28.33;;
46377;SDS011;32083;47.360;9.650;2022-10-31T06:19:21;101.20;;;31.85;;
46377;SDS011;32083;47.360;9.650;2022-10-31T06:21:47;109.10;;;30.50;;
46377;SDS011;32083;47.360;9.650;2022-10-31T06:24:13;73.07;;;26.75;;
46377;SDS011;32083;47.360;9.650;2022-10-31T06:26:42;92.20;;;25.25;;
46377;SDS011;32083;47.360;9.650;2022-10-31T06:29:08;52.17;;;19.80;;
46377;SDS011;32083;47.360;9.650;2022-10-31T06:31:34;79.45;;;24.08;;
46377;SDS011;32083;47.360;9.650;2022-10-31T06:34:00;62.42;;;18.85;;
46377;SDS011;32083;47.360;9.650;2022-10-31T06:36:26;27.92;;;18.15;;
46377;SDS011;32083;47.360;9.650;2022-10-31T06:38:52;50.88;;;23.92;;
46377;SDS011;32083;47.360;9.650;2022-10-31T06:41:18;20.33;;;13.98;;
46377;SDS011;32083;47.360;9.650;2022-10-31T06:43:47;55.53;;;22.90;;
46377;SDS011;32083;47.360;9.650;2022-10-31T06:46:13;63.38;;;29.63;;
46377;SDS011;32083;47.360;9.650;2022-10-31T06:48:40;83.18;;;29.60;;
46377;SDS011;32083;47.360;9.650;2022-10-31T06:51:07;54.75;;;28.10;;
46377;SDS011;32083;47.360;9.650;2022-10-31T06:53:33;52.47;;;26.02;;
46377;SDS011;32083;47.360;9.650;2022-10-31T06:55:59;71.70;;;52.58;;
46377;SDS011;32083;47.360;9.650;2022-10-31T06:58:25;44.97;;;25.42;;
46377;SDS011;32083;47.360;9.650;2022-10-31T07:00:51;39.15;;;24.67;;
46377;SDS011;32083;47.360;9.650;2022-10-31T07:03:17;28.70;;;21.73;;
46377;SDS011;32083;47.360;9.650;2022-10-31T07:05:45;41.35;;;28.75;;
46377;SDS011;32083;47.360;9.650;2022-10-31T07:08:12;61.60;;;34.72;;
46377;SDS011;32083;47.360;9.650;2022-10-31T07:10:39;44.00;;;25.80;;
46377;SDS011;32083;47.360;9.650;2022-10-31T07:13:08;51.80;;;29.52;;
46377;SDS011;32083;47.360;9.650;2022-10-31T07:15:38;77.50;;;29.85;;
46377;SDS011;32083;47.360;9.650;2022-10-31T07:18:06;97.75;;;32.85;;
46377;SDS011;32083;47.360;9.650;2022-10-31T07:20:34;64.68;;;27.48;;
46377;SDS011;32083;47.360;9.650;2022-10-31T07:23:00;60.63;;;25.65;;
46377;SDS011;32083;47.360;9.650;2022-10-31T07:25:26;123.75;;;35.85;;
46377;SDS011;32083;47.360;9.650;2022-10-31T07:27:52;111.35;;;36.13;;
46377;SDS011;32083;47.360;9.650;2022-10-31T07:30:18;30.20;;;17.95;;
46377;SDS011;32083;47.360;9.650;2022-10-31T07:32:45;185.07;;;43.20;;
46377;SDS011;32083;47.360;9.650;2022-10-31T07:35:23;131.75;;;38.50;;
46377;SDS011;32083;47.360;9.650;2022-10-31T07:37:50;168.23;;;37.17;;
46377;SDS011;32083;47.360;9.650;2022-10-31T07:40:17;26.08;;;17.38;;
46377;SDS011;32083;47.360;9.650;2022-10-31T07:42:48;33.10;;;16.10;;
46377;SDS011;32083;47.360;9.650;2022-10-31T07:45:16;126.25;;;28.30;;
46377;SDS011;32083;47.360;9.650;2022-10-31T07:47:45;287.45;;;45.38;;
46377;SDS011;32083;47.360;9.650;2022-10-31T07:50:16;114.00;;;29.10;;
46377;SDS011;32083;47.360;9.650;2022-10-31T07:52:44;102.93;;;29.60;;
46377;SDS011;32083;47.360;9.650;2022-10-31T07:55:10;128.27;;;35.00;;
46377;SDS011;32083;47.360;9.650;2022-10-31T07:57:36;120.82;;;29.60;;
46377;SDS011;32083;47.360;9.650;2022-10-31T08:00:03;183.48;;;36.53;;
46377;SDS011;32083;47.360;9.650;2022-10-31T08:02:31;193.90;;;36.03;;
46377;SDS011;32083;47.360;9.650;2022-10-31T08:04:57;149.13;;;33.75;;
46377;SDS011;32083;47.360;9.650;2022-10-31T08:07:24;118.55;;;28.80;;
46377;SDS011;32083;47.360;9.650;2022-10-31T08:09:51;137.32;;;37.17;;
46377;SDS011;32083;47.360;9.650;2022-10-31T08:12:17;159.80;;;33.00;;
46377;SDS011;32083;47.360;9.650;2022-10-31T08:14:43;38.55;;;18.77;;
46377;SDS011;32083;47.360;9.650;2022-10-31T08:17:10;139.45;;;34.28;;
46377;SDS011;32083;47.360;9.650;2022-10-31T08:19:36;198.20;;;38.72;;
46377;SDS011;32083;47.360;9.650;2022-10-31T08:22:02;83.78;;;22.90;;
46377;SDS011;32083;47.360;9.650;2022-10-31T08:24:28;189.35;;;45.33;;
46377;SDS011;32083;47.360;9.650;2022-10-31T08:26:54;33.67;;;17.75;;
46377;SDS011;32083;47.360;9.650;2022-10-31T08:29:20;125.97;;;33.65;;
46377;SDS011;32083;47.360;9.650;2022-10-31T08:31:46;109.28;;;30.58;;
46377;SDS011;32083;47.360;9.650;2022-10-31T08:34:12;79.53;;;26.77;;
46377;SDS011;32083;47.360;9.650;2022-10-31T08:36:38;77.13;;;25.23;;
46377;SDS011;32083;47.360;9.650;2022-10-31T08:39:04;210.48;;;46.13;;
46377;SDS011;32083;47.360;9.650;2022-10-31T08:41:30;57.20;;;24.75;;
46377;SDS011;32083;47.360;9.650;2022-10-31T08:43:56;192.48;;;44.10;;
46377;SDS011;32083;47.360;9.650;2022-10-31T08:46:22;41.33;;;24.52;;
46377;SDS011;32083;47.360;9.650;2022-10-31T08:48:48;132.52;;;32.15;;
46377;SDS011;32083;47.360;9.650;2022-10-31T08:51:14;27.55;;;18.75;;
46377;SDS011;32083;47.360;9.650;2022-10-31T08:53:40;139.50;;;35.95;;
46377;SDS011;32083;47.360;9.650;2022-10-31T08:56:06;85.95;;;30.17;;
46377;SDS011;32083;47.360;9.650;2022-10-31T08:58:32;108.45;;;29.73;;
46377;SDS011;32083;47.360;9.650;2022-10-31T09:00:59;180.70;;;44.42;;
46377;SDS011;32083;47.360;9.650;2022-10-31T09:03:26;97.88;;;29.00;;
46377;SDS011;32083;47.360;9.650;2022-10-31T09:05:54;101.20;;;32.78;;
46377;SDS011;32083;47.360;9.650;2022-10-31T09:08:24;43.95;;;24.02;;
46377;SDS011;32083;47.360;9.650;2022-10-31T09:10:51;73.80;;;29.48;;
46377;SDS011;32083;47.360;9.650;2022-10-31T09:13:21;56.83;;;27.95;;
46377;SDS011;32083;47.360;9.650;2022-10-31T09:15:47;26.58;;;21.75;;
46377;SDS011;32083;47.360;9.650;2022-10-31T09:18:16;39.33;;;25.63;;
46377;SDS011;32083;47.360;9.650;2022-10-31T09:20:43;24.85;;;18.52;;
46377;SDS011;32083;47.360;9.650;2022-10-31T09:23:12;17.52;;;15.27;;
46377;SDS011;32083;47.360;9.650;2022-10-31T09:25:40;16.90;;;14.57;;
46377;SDS011;32083;47.360;9.650;2022-10-31T09:28:08;17.05;;;15.25;;
46377;SDS011;32083;47.360;9.650;2022-10-31T09:30:36;19.25;;;15.02;;
46377;SDS011;32083;47.360;9.650;2022-10-31T09:33:04;17.30;;;15.35;;
46377;SDS011;32083;47.360;9.650;2022-10-31T09:35:32;22.48;;;16.15;;
46377;SDS011;32083;47.360;9.650;2022-10-31T09:38:00;18.08;;;16.13;;
46377;SDS011;32083;47.360;9.650;2022-10-31T09:40:31;16.98;;;15.30;;
46377;SDS011;32083;47.360;9.650;2022-10-31T09:46:04;19.42;;;17.05;;
46377;SDS011;32083;47.360;9.650;2022-10-31T09:51:34;19.08;;;16.95;;
46377;SDS011;32083;47.360;9.650;2022-10-31T09:54:12;19.15;;;15.43;;
46377;SDS011;32083;47.360;9.650;2022-10-31T09:56:40;19.75;;;17.63;;
46377;SDS011;32083;47.360;9.650;2022-10-31T09:59:10;19.48;;;17.52;;
46377;SDS011;32083;47.360;9.650;2022-10-31T10:04:55;19.80;;;17.33;;
46377;SDS011;32083;47.360;9.650;2022-10-31T10:15:44;22.77;;;17.52;;
46377;SDS011;32083;47.360;9.650;2022-10-31T10:24:12;18.88;;;16.30;;
46377;SDS011;32083;47.360;9.650;2022-10-31T10:30:16;19.55;;;17.33;;
46377;SDS011;32083;47.360;9.650;2022-10-31T10:32:47;19.70;;;16.08;;
46377;SDS011;32083;47.360;9.650;2022-10-31T10:35:30;19.40;;;16.17;;
46377;SDS011;32083;47.360;9.650;2022-10-31T10:40:49;17.33;;;15.48;;
46377;SDS011;32083;47.360;9.650;2022-10-31T10:43:32;19.55;;;16.55;;
46377;SDS011;32083;47.360;9.650;2022-10-31T10:51:43;19.75;;;15.52;;
46377;SDS011;32083;47.360;9.650;2022-10-31T10:57:11;21.30;;;16.83;;
46377;SDS011;32083;47.360;9.650;2022-10-31T10:59:55;21.65;;;17.08;;
46377;SDS011;32083;47.360;9.650;2022-10-31T11:02:24;23.10;;;18.15;;
46377;SDS011;32083;47.360;9.650;2022-10-31T11:04:55;22.73;;;17.55;;
46377;SDS011;32083;47.360;9.650;2022-10-31T11:07:23;20.67;;;17.05;;
46377;SDS011;32083;47.360;9.650;2022-10-31T11:09:49;21.05;;;17.58;;
46377;SDS011;32083;47.360;9.650;2022-10-31T11:14:53;25.75;;;18.88;;
46377;SDS011;32083;47.360;9.650;2022-10-31T11:17:30;22.40;;;18.85;;
46377;SDS011;32083;47.360;9.650;2022-10-31T11:19:59;23.10;;;18.85;;
46377;SDS011;32083;47.360;9.650;2022-10-31T11:22:48;25.83;;;18.52;;
46377;SDS011;32083;47.360;9.650;2022-10-31T11:25:21;24.50;;;17.35;;
46377;SDS011;32083;47.360;9.650;2022-10-31T11:30:48;23.92;;;19.77;;
46377;SDS011;32083;47.360;9.650;2022-10-31T11:33:24;21.35;;;18.58;;
46377;SDS011;32083;47.360;9.650;2022-10-31T11:35:53;20.25;;;18.13;;
46377;SDS011;32083;47.360;9.650;2022-10-31T11:38:21;30.63;;;26.15;;
46377;SDS011;32083;47.360;9.650;2022-10-31T11:43:23;52.75;;;46.95;;
46377;SDS011;32083;47.360;9.650;2022-10-31T11:45:50;22.92;;;19.80;;
46377;SDS011;32083;47.360;9.650;2022-10-31T11:48:18;25.95;;;20.15;;
46377;SDS011;32083;47.360;9.650;2022-10-31T11:50:48;22.52;;;18.55;;
46377;SDS011;32083;47.360;9.650;2022-10-31T11:53:30;22.63;;;18.92;;
46377;SDS011;32083;47.360;9.650;2022-10-31T11:56:09;21.77;;;19.13;;
46377;SDS011;32083;47.360;9.650;2022-10-31T11:58:38;24.17;;;18.75;;
46377;SDS011;32083;47.360;9.650;2022-10-31T12:01:05;21.08;;;18.60;;
46377;SDS011;32083;47.360;9.650;2022-10-31T12:06:20;19.52;;;17.42;;
46377;SDS011;32083;47.360;9.650;2022-10-31T12:08:53;30.38;;;18.95;;
46377;SDS011;32083;47.360;9.650;2022-10-31T12:16:46;23.88;;;19.10;;
46377;SDS011;32083;47.360;9.650;2022-10-31T12:31:16;26.45;;;19.50;;
46377;SDS011;32083;47.360;9.650;2022-10-31T12:41:46;22.05;;;19.02;;
46377;SDS011;32083;47.360;9.650;2022-10-31T12:49:51;20.75;;;18.10;;
46377;SDS011;32083;47.360;9.650;2022-10-31T12:57:56;19.92;;;16.58;;
46377;SDS011;32083;47.360;9.650;2022-10-31T13:00:27;24.08;;;17.00;;
46377;SDS011;32083;47.360;9.650;2022-10-31T13:03:09;18.38;;;16.38;;
46377;SDS011;32083;47.360;9.650;2022-10-31T13:05:45;22.08;;;18.65;;
46377;SDS011;32083;47.360;9.650;2022-10-31T13:08:18;23.17;;;16.70;;
46377;SDS011;32083;47.360;9.650;2022-10-31T13:10:49;22.33;;;17.92;;
46377;SDS011;32083;47.360;9.650;2022-10-31T13:15:50;24.35;;;17.92;;
46377;SDS011;32083;47.360;9.650;2022-10-31T13:18:57;20.67;;;17.85;;
46377;SDS011;32083;47.360;9.650;2022-10-31T13:21:30;25.45;;;17.63;;
46377;SDS011;32083;47.360;9.650;2022-10-31T13:24:03;19.42;;;17.40;;
46377;SDS011;32083;47.360;9.650;2022-10-31T13:31:40;20.30;;;17.48;;
46377;SDS011;32083;47.360;9.650;2022-10-31T13:34:26;19.92;;;16.88;;
46377;SDS011;32083;47.360;9.650;2022-10-31T13:36:56;21.33;;;17.92;;
46377;SDS011;32083;47.360;9.650;2022-10-31T13:42:13;20.33;;;17.58;;
46377;SDS011;32083;47.360;9.650;2022-10-31T13:45:16;24.92;;;17.17;;
46377;SDS011;32083;47.360;9.650;2022-10-31T13:47:54;21.73;;;16.13;;
46377;SDS011;32083;47.360;9.650;2022-10-31T13:50:22;21.05;;;15.93;;
46377;SDS011;32083;47.360;9.650;2022-10-31T13:52:51;17.70;;;15.80;;
46377;SDS011;32083;47.360;9.650;2022-10-31T13:58:04;18.90;;;15.75;;
46377;SDS011;32083;47.360;9.650;2022-10-31T14:00:45;20.83;;;15.15;;
46377;SDS011;32083;47.360;9.650;2022-10-31T14:03:18;16.55;;;14.80;;
46377;SDS011;32083;47.360;9.650;2022-10-31T14:05:51;20.88;;;15.27;;
46377;SDS011;32083;47.360;9.650;2022-10-31T14:08:20;23.15;;;17.00;;
46377;SDS011;32083;47.360;9.650;2022-10-31T14:10:49;20.95;;;15.70;;
46377;SDS011;32083;47.360;9.650;2022-10-31T14:13:19;20.75;;;15.38;;
46377;SDS011;32083;47.360;9.650;2022-10-31T14:15:57;19.50;;;14.45;;
46377;SDS011;32083;47.360;9.650;2022-10-31T14:18:30;15.98;;;14.23;;
46377;SDS011;32083;47.360;9.650;2022-10-31T14:21:48;15.30;;;13.70;;
46377;SDS011;32083;47.360;9.650;2022-10-31T14:23:49;20.95;;;16.13;;
46377;SDS011;32083;47.360;9.650;2022-10-31T14:33:53;24.52;;;15.20;;
46377;SDS011;32083;47.360;9.650;2022-10-31T14:36:36;22.83;;;16.63;;
46377;SDS011;32083;47.360;9.650;2022-10-31T14:47:36;18.25;;;15.30;;
46377;SDS011;32083;47.360;9.650;2022-10-31T14:55:53;18.52;;;15.63;;
46377;SDS011;32083;47.360;9.650;2022-10-31T14:58:28;23.02;;;16.13;;
46377;SDS011;32083;47.360;9.650;2022-10-31T15:01:04;27.65;;;17.25;;
46377;SDS011;32083;47.360;9.650;2022-10-31T15:03:31;30.20;;;18.48;;
46377;SDS011;32083;47.360;9.650;2022-10-31T15:06:05;25.63;;;17.33;;
46377;SDS011;32083;47.360;9.650;2022-10-31T15:08:40;22.08;;;17.23;;
46377;SDS011;32083;47.360;9.650;2022-10-31T15:11:10;22.73;;;17.35;;
46377;SDS011;32083;47.360;9.650;2022-10-31T15:13:42;23.43;;;18.60;;
46377;SDS011;32083;47.360;9.650;2022-10-31T15:16:27;22.95;;;20.38;;
46377;SDS011;32083;47.360;9.650;2022-10-31T15:19:02;21.00;;;18.75;;
46377;SDS011;32083;47.360;9.650;2022-10-31T15:21:31;33.63;;;19.10;;
46377;SDS011;32083;47.360;9.650;2022-10-31T15:23:59;24.20;;;16.10;;
46377;SDS011;32083;47.360;9.650;2022-10-31T15:26:37;21.48;;;15.90;;
46377;SDS011;32083;47.360;9.650;2022-10-31T15:29:14;24.27;;;18.10;;
46377;SDS011;32083;47.360;9.650;2022-10-31T15:31:51;19.15;;;15.93;;
46377;SDS011;32083;47.360;9.650;2022-10-31T15:37:04;26.85;;;16.40;;
46377;SDS011;32083;47.360;9.650;2022-10-31T15:39:34;24.88;;;16.08;;
46377;SDS011;32083;47.360;9.650;2022-10-31T15:42:00;25.08;;;18.02;;
46377;SDS011;32083;47.360;9.650;2022-10-31T15:44:31;27.58;;;18.45;;
46377;SDS011;32083;47.360;9.650;2022-10-31T15:47:06;23.38;;;18.52;;
46377;SDS011;32083;47.360;9.650;2022-10-31T15:49:47;37.20;;;20.42;;
46377;SDS011;32083;47.360;9.650;2022-10-31T15:57:42;28.83;;;20.67;;
46377;SDS011;32083;47.360;9.650;2022-10-31T16:00:26;24.30;;;18.88;;
46377;SDS011;32083;47.360;9.650;2022-10-31T16:05:43;24.48;;;19.92;;
46377;SDS011;32083;47.360;9.650;2022-10-31T16:08:21;27.90;;;20.00;;
46377;SDS011;32083;47.360;9.650;2022-10-31T16:10:49;25.88;;;21.75;;
46377;SDS011;32083;47.360;9.650;2022-10-31T16:13:15;25.90;;;21.63;;
46377;SDS011;32083;47.360;9.650;2022-10-31T16:15:51;27.85;;;20.83;;
46377;SDS011;32083;47.360;9.650;2022-10-31T16:18:21;32.13;;;21.50;;
46377;SDS011;32083;47.360;9.650;2022-10-31T16:20:48;27.35;;;21.45;;
46377;SDS011;32083;47.360;9.650;2022-10-31T16:23:18;26.08;;;20.77;;
46377;SDS011;32083;47.360;9.650;2022-10-31T16:25:46;26.50;;;21.58;;
46377;SDS011;32083;47.360;9.650;2022-10-31T16:28:20;29.58;;;21.90;;
46377;SDS011;32083;47.360;9.650;2022-10-31T16:30:49;29.67;;;22.35;;
46377;SDS011;32083;47.360;9.650;2022-10-31T16:35:59;33.42;;;23.40;;
46377;SDS011;32083;47.360;9.650;2022-10-31T16:38:28;39.17;;;24.35;;
46377;SDS011;32083;47.360;9.650;2022-10-31T16:40:54;35.97;;;25.08;;
46377;SDS011;32083;47.360;9.650;2022-10-31T16:43:20;30.05;;;21.60;;
46377;SDS011;32083;47.360;9.650;2022-10-31T16:45:49;27.23;;;23.08;;
46377;SDS011;32083;47.360;9.650;2022-10-31T16:48:17;28.15;;;22.52;;
46377;SDS011;32083;47.360;9.650;2022-10-31T16:50:45;31.05;;;24.95;;
46377;SDS011;32083;47.360;9.650;2022-10-31T16:53:12;31.08;;;22.95;;
46377;SDS011;32083;47.360;9.650;2022-10-31T16:55:59;36.20;;;23.83;;
46377;SDS011;32083;47.360;9.650;2022-10-31T16:58:29;33.08;;;25.77;;
46377;SDS011;32083;47.360;9.650;2022-10-31T17:01:01;27.88;;;23.55;;
46377;SDS011;32083;47.360;9.650;2022-10-31T17:03:30;28.90;;;24.17;;
46377;SDS011;32083;47.360;9.650;2022-10-31T17:05:56;32.85;;;22.42;;
46377;SDS011;32083;47.360;9.650;2022-10-31T17:08:23;30.23;;;25.08;;
46377;SDS011;32083;47.360;9.650;2022-10-31T17:10:55;31.90;;;24.90;;
46377;SDS011;32083;47.360;9.650;2022-10-31T17:13:23;29.25;;;23.52;;
46377;SDS011;32083;47.360;9.650;2022-10-31T17:15:52;32.30;;;26.30;;
46377;SDS011;32083;47.360;9.650;2022-10-31T17:18:22;38.90;;;31.05;;
46377;SDS011;32083;47.360;9.650;2022-10-31T17:20:48;35.97;;;27.30;;
46377;SDS011;32083;47.360;9.650;2022-10-31T17:23:15;31.20;;;25.85;;
46377;SDS011;32083;47.360;9.650;2022-10-31T17:25:42;33.35;;;25.55;;
46377;SDS011;32083;47.360;9.650;2022-10-31T17:28:12;34.85;;;29.45;;
46377;SDS011;32083;47.360;9.650;2022-10-31T17:30:39;28.85;;;25.25;;
46377;SDS011;32083;47.360;9.650;2022-10-31T17:33:16;35.00;;;29.20;;
46377;SDS011;32083;47.360;9.650;2022-10-31T17:35:42;34.97;;;25.33;;
46377;SDS011;32083;47.360;9.650;2022-10-31T17:38:11;37.63;;;31.30;;
46377;SDS011;32083;47.360;9.650;2022-10-31T17:40:38;38.63;;;31.52;;
46377;SDS011;32083;47.360;9.650;2022-10-31T17:43:06;40.55;;;32.53;;
46377;SDS011;32083;47.360;9.650;2022-10-31T17:45:33;38.03;;;31.20;;
46377;SDS011;32083;47.360;9.650;2022-10-31T17:47:59;41.58;;;33.05;;
46377;SDS011;32083;47.360;9.650;2022-10-31T17:50:25;45.20;;;33.95;;
46377;SDS011;32083;47.360;9.650;2022-10-31T17:52:51;39.70;;;31.25;;
46377;SDS011;32083;47.360;9.650;2022-10-31T17:55:18;47.22;;;34.55;;
46377;SDS011;32083;47.360;9.650;2022-10-31T17:57:44;37.63;;;31.33;;
46377;SDS011;32083;47.360;9.650;2022-10-31T18:00:12;33.95;;;29.17;;
46377;SDS011;32083;47.360;9.650;2022-10-31T18:02:40;36.35;;;30.30;;
46377;SDS011;32083;47.360;9.650;2022-10-31T18:05:06;38.17;;;33.65;;
46377;SDS011;32083;47.360;9.650;2022-10-31T18:07:32;39.35;;;33.45;;
46377;SDS011;32083;47.360;9.650;2022-10-31T18:09:59;41.50;;;35.70;;
46377;SDS011;32083;47.360;9.650;2022-10-31T18:12:25;41.03;;;34.00;;
46377;SDS011;32083;47.360;9.650;2022-10-31T18:14:52;40.95;;;35.03;;
46377;SDS011;32083;47.360;9.650;2022-10-31T18:17:19;49.45;;;37.17;;
46377;SDS011;32083;47.360;9.650;2022-10-31T18:19:45;36.28;;;31.35;;
46377;SDS011;32083;47.360;9.650;2022-10-31T18:22:11;38.00;;;32.38;;
46377;SDS011;32083;47.360;9.650;2022-10-31T18:24:38;41.63;;;34.97;;
46377;SDS011;32083;47.360;9.650;2022-10-31T18:27:04;39.50;;;35.28;;
46377;SDS011;32083;47.360;9.650;2022-10-31T18:29:31;48.47;;;38.20;;
46377;SDS011;32083;47.360;9.650;2022-10-31T18:31:57;41.88;;;35.00;;
46377;SDS011;32083;47.360;9.650;2022-10-31T18:34:23;45.35;;;38.55;;
46377;SDS011;32083;47.360;9.650;2022-10-31T18:36:49;43.75;;;37.42;;
46377;SDS011;32083;47.360;9.650;2022-10-31T18:39:15;39.35;;;35.10;;
46377;SDS011;32083;47.360;9.650;2022-10-31T18:41:41;41.95;;;34.92;;
46377;SDS011;32083;47.360;9.650;2022-10-31T18:44:07;40.85;;;36.53;;
46377;SDS011;32083;47.360;9.650;2022-10-31T18:46:33;40.35;;;33.90;;
46377;SDS011;32083;47.360;9.650;2022-10-31T18:49:01;46.65;;;37.65;;
46377;SDS011;32083;47.360;9.650;2022-10-31T18:51:28;58.88;;;47.70;;
46377;SDS011;32083;47.360;9.650;2022-10-31T18:53:55;50.15;;;43.15;;
46377;SDS011;32083;47.360;9.650;2022-10-31T18:56:23;48.08;;;42.38;;
46377;SDS011;32083;47.360;9.650;2022-10-31T18:58:49;48.22;;;42.53;;
46377;SDS011;32083;47.360;9.650;2022-10-31T19:01:16;51.95;;;45.45;;
46377;SDS011;32083;47.360;9.650;2022-10-31T19:03:43;52.75;;;41.65;;
46377;SDS011;32083;47.360;9.650;2022-10-31T19:06:10;53.88;;;42.22;;
46377;SDS011;32083;47.360;9.650;2022-10-31T19:08:36;44.53;;;39.67;;
46377;SDS011;32083;47.360;9.650;2022-10-31T19:11:10;51.42;;;41.63;;
46377;SDS011;32083;47.360;9.650;2022-10-31T19:13:38;48.58;;;42.85;;
46377;SDS011;32083;47.360;9.650;2022-10-31T19:18:32;49.47;;;41.22;;
46377;SDS011;32083;47.360;9.650;2022-10-31T19:20:58;54.47;;;39.83;;
46377;SDS011;32083;47.360;9.650;2022-10-31T19:23:28;56.22;;;47.05;;
46377;SDS011;32083;47.360;9.650;2022-10-31T19:25:56;55.17;;;48.58;;
46377;SDS011;32083;47.360;9.650;2022-10-31T19:28:23;61.40;;;50.47;;
46377;SDS011;32083;47.360;9.650;2022-10-31T19:30:53;49.40;;;43.47;;
46377;SDS011;32083;47.360;9.650;2022-10-31T19:33:20;56.00;;;47.75;;
46377;SDS011;32083;47.360;9.650;2022-10-31T19:35:46;56.60;;;48.35;;
46377;SDS011;32083;47.360;9.650;2022-10-31T19:38:12;47.13;;;42.05;;
46377;SDS011;32083;47.360;9.650;2022-10-31T19:40:39;52.65;;;46.70;;
46377;SDS011;32083;47.360;9.650;2022-10-31T19:43:05;57.80;;;44.92;;
46377;SDS011;32083;47.360;9.650;2022-10-31T19:45:31;51.65;;;45.70;;
46377;SDS011;32083;47.360;9.650;2022-10-31T19:47:57;50.78;;;44.47;;
46377;SDS011;32083;47.360;9.650;2022-10-31T19:50:23;50.28;;;42.22;;
46377;SDS011;32083;47.360;9.650;2022-10-31T19:52:49;63.88;;;47.78;;
46377;SDS011;32083;47.360;9.650;2022-10-31T19:55:15;64.75;;;53.67;;
46377;SDS011;32083;47.360;9.650;2022-10-31T19:57:40;59.03;;;49.47;;
46377;SDS011;32083;47.360;9.650;2022-10-31T20:00:07;62.22;;;51.60;;
46377;SDS011;32083;47.360;9.650;2022-10-31T20:02:33;59.53;;;51.90;;
46377;SDS011;32083;47.360;9.650;2022-10-31T20:04:59;61.03;;;52.10;;
46377;SDS011;32083;47.360;9.650;2022-10-31T20:07:26;66.07;;;57.47;;
46377;SDS011;32083;47.360;9.650;2022-10-31T20:09:52;67.30;;;60.13;;
46377;SDS011;32083;47.360;9.650;2022-10-31T20:12:18;75.97;;;66.20;;
46377;SDS011;32083;47.360;9.650;2022-10-31T20:14:44;64.95;;;57.90;;
46377;SDS011;32083;47.360;9.650;2022-10-31T20:17:10;70.93;;;62.95;;
46377;SDS011;32083;47.360;9.650;2022-10-31T20:19:35;55.35;;;49.33;;
46377;SDS011;32083;47.360;9.650;2022-10-31T20:22:01;56.20;;;47.08;;
46377;SDS011;32083;47.360;9.650;2022-10-31T20:24:30;57.08;;;48.15;;
46377;SDS011;32083;47.360;9.650;2022-10-31T20:26:57;44.70;;;38.65;;
46377;SDS011;32083;47.360;9.650;2022-10-31T20:29:23;42.15;;;37.00;;
46377;SDS011;32083;47.360;9.650;2022-10-31T20:31:49;39.10;;;34.85;;
46377;SDS011;32083;47.360;9.650;2022-10-31T20:34:15;44.83;;;35.92;;
46377;SDS011;32083;47.360;9.650;2022-10-31T20:36:41;45.88;;;34.47;;
46377;SDS011;32083;47.360;9.650;2022-10-31T20:39:07;51.08;;;37.05;;
46377;SDS011;32083;47.360;9.650;2022-10-31T20:41:37;68.57;;;43.15;;
46377;SDS011;32083;47.360;9.650;2022-10-31T20:44:06;84.75;;;47.33;;
46377;SDS011;32083;47.360;9.650;2022-10-31T20:46:32;136.00;;;55.60;;
46377;SDS011;32083;47.360;9.650;2022-10-31T20:48:58;174.13;;;65.45;;
46377;SDS011;32083;47.360;9.650;2022-10-31T20:51:25;133.52;;;58.78;;
46377;SDS011;32083;47.360;9.650;2022-10-31T20:53:53;115.25;;;57.22;;
46377;SDS011;32083;47.360;9.650;2022-10-31T20:56:21;103.65;;;51.50;;
46377;SDS011;32083;47.360;9.650;2022-10-31T20:58:49;92.95;;;49.75;;
46377;SDS011;32083;47.360;9.650;2022-10-31T21:01:19;74.35;;;42.80;;
46377;SDS011;32083;47.360;9.650;2022-10-31T21:03:50;113.22;;;57.78;;
46377;SDS011;32083;47.360;9.650;2022-10-31T21:06:17;144.73;;;66.10;;
46377;SDS011;32083;47.360;9.650;2022-10-31T21:08:44;214.45;;;73.55;;
46377;SDS011;32083;47.360;9.650;2022-10-31T21:11:11;147.77;;;59.75;;
46377;SDS011;32083;47.360;9.650;2022-10-31T21:13:40;117.78;;;54.63;;